sensor_id;sensor_type;location;lat;lon;timestamp;P1;durP1;ratioP1;P2;durP2;ratioP2
35943;SDS011;22029;54.774;9.434;2023-03-14T00:01:22;0.20;;;0.20;;
35943;SDS011;22029;54.774;9.434;2023-03-14T00:03:52;0.20;;;0.20;;
35943;SDS011;22029;54.774;9.434;2023-03-14T00:06:23;0.20;;;0.20;;
35943;SDS011;22029;54.774;9.434;2023-03-14T00:08:52;0.20;;;0.20;;
35943;SDS011;22029;54.774;9.434;2023-03-14T00:11:22;0.27;;;0.27;;
35943;SDS011;22029;54.774;9.434;2023-03-14T00:13:52;0.30;;;0.30;;
35943;SDS011;22029;54.774;9.434;2023-03-14T00:16:22;0.20;;;0.20;;
35943;SDS011;22029;54.774;9.434;2023-03-14T00:18:51;0.30;;;0.30;;
35943;SDS011;22029;54.774;9.434;2023-03-14T00:21:22;0.30;;;0.30;;
35943;SDS011;22029;54.774;9.434;2023-03-14T00:23:52;0.20;;;0.20;;
35943;SDS011;22029;54.774;9.434;2023-03-14T00:26:22;0.20;;;0.20;;
35943;SDS011;22029;54.774;9.434;2023-03-14T00:28:52;0.20;;;0.20;;
35943;SDS011;22029;54.774;9.434;2023-03-14T00:31:22;0.20;;;0.20;;
35943;SDS011;22029;54.774;9.434;2023-03-14T00:33:52;0.20;;;0.20;;
35943;SDS011;22029;54.774;9.434;2023-03-14T00:36:23;0.20;;;0.20;;
35943;SDS011;22029;54.774;9.434;2023-03-14T00:38:53;0.27;;;0.27;;
35943;SDS011;22029;54.774;9.434;2023-03-14T00:41:23;0.20;;;0.20;;
35943;SDS011;22029;54.774;9.434;2023-03-14T00:43:53;0.27;;;0.27;;
35943;SDS011;22029;54.774;9.434;2023-03-14T00:46:22;0.20;;;0.20;;
35943;SDS011;22029;54.774;9.434;2023-03-14T00:48:52;0.30;;;0.30;;
35943;SDS011;22029;54.774;9.434;2023-03-14T00:51:24;0.30;;;0.30;;
35943;SDS011;22029;54.774;9.434;2023-03-14T00:53:55;0.30;;;0.30;;
35943;SDS011;22029;54.774;9.434;2023-03-14T00:56:25;0.30;;;0.30;;
35943;SDS011;22029;54.774;9.434;2023-03-14T00:58:55;0.27;;;0.27;;
35943;SDS011;22029;54.774;9.434;2023-03-14T01:01:24;0.30;;;0.30;;
35943;SDS011;22029;54.774;9.434;2023-03-14T01:03:54;0.20;;;0.20;;
35943;SDS011;22029;54.774;9.434;2023-03-14T01:06:26;0.20;;;0.20;;
35943;SDS011;22029;54.774;9.434;2023-03-14T01:08:56;0.30;;;0.30;;
35943;SDS011;22029;54.774;9.434;2023-03-14T01:11:27;0.30;;;0.30;;
35943;SDS011;22029;54.774;9.434;2023-03-14T01:13:58;0.30;;;0.30;;
35943;SDS011;22029;54.774;9.434;2023-03-14T01:16:29;0.27;;;0.27;;
35943;SDS011;22029;54.774;9.434;2023-03-14T01:19:01;0.30;;;0.30;;
35943;SDS011;22029;54.774;9.434;2023-03-14T01:21:33;0.20;;;0.20;;
35943;SDS011;22029;54.774;9.434;2023-03-14T01:24:03;0.20;;;0.20;;
35943;SDS011;22029;54.774;9.434;2023-03-14T01:26:34;0.30;;;0.30;;
35943;SDS011;22029;54.774;9.434;2023-03-14T01:29:06;0.30;;;0.30;;
35943;SDS011;22029;54.774;9.434;2023-03-14T01:31:38;0.30;;;0.30;;
35943;SDS011;22029;54.774;9.434;2023-03-14T01:34:08;0.20;;;0.20;;
35943;SDS011;22029;54.774;9.434;2023-03-14T01:36:39;0.20;;;0.20;;
35943;SDS011;22029;54.774;9.434;2023-03-14T01:39:09;0.30;;;0.30;;
35943;SDS011;22029;54.774;9.434;2023-03-14T01:41:40;0.30;;;0.30;;
35943;SDS011;22029;54.774;9.434;2023-03-14T01:44:10;0.20;;;0.20;;
35943;SDS011;22029;54.774;9.434;2023-03-14T01:46:40;0.30;;;0.30;;
35943;SDS011;22029;54.774;9.434;2023-03-14T01:49:13;0.30;;;0.30;;
35943;SDS011;22029;54.774;9.434;2023-03-14T01:51:51;0.20;;;0.20;;
35943;SDS011;22029;54.774;9.434;2023-03-14T01:54:24;0.30;;;0.30;;
35943;SDS011;22029;54.774;9.434;2023-03-14T01:56:55;0.30;;;0.30;;
35943;SDS011;22029;54.774;9.434;2023-03-14T01:59:26;0.20;;;0.20;;
35943;SDS011;22029;54.774;9.434;2023-03-14T02:01:57;0.30;;;0.30;;
35943;SDS011;22029;54.774;9.434;2023-03-14T02:04:29;0.20;;;0.20;;
35943;SDS011;22029;54.774;9.434;2023-03-14T02:07:05;0.20;;;0.20;;
35943;SDS011;22029;54.774;9.434;2023-03-14T02:09:43;0.30;;;0.30;;
35943;SDS011;22029;54.774;9.434;2023-03-14T02:12:20;0.30;;;0.30;;
35943;SDS011;22029;54.774;9.434;2023-03-14T02:15:06;0.20;;;0.20;;
35943;SDS011;22029;54.774;9.434;2023-03-14T02:17:56;0.20;;;0.20;;
35943;SDS011;22029;54.774;9.434;2023-03-14T02:20:49;0.20;;;0.20;;
35943;SDS011;22029;54.774;9.434;2023-03-14T02:23:25;0.30;;;0.30;;
35943;SDS011;22029;54.774;9.434;2023-03-14T02:25:57;0.30;;;0.30;;
35943;SDS011;22029;54.774;9.434;2023-03-14T02:28:30;0.30;;;0.30;;
35943;SDS011;22029;54.774;9.434;2023-03-14T02:31:01;0.20;;;0.20;;
35943;SDS011;22029;54.774;9.434;2023-03-14T02:33:33;0.20;;;0.20;;
35943;SDS011;22029;54.774;9.434;2023-03-14T02:36:05;0.30;;;0.30;;
35943;SDS011;22029;54.774;9.434;2023-03-14T02:38:37;0.30;;;0.30;;
35943;SDS011;22029;54.774;9.434;2023-03-14T02:41:09;0.20;;;0.20;;
35943;SDS011;22029;54.774;9.434;2023-03-14T02:43:46;0.27;;;0.27;;
35943;SDS011;22029;54.774;9.434;2023-03-14T02:46:16;0.20;;;0.20;;
35943;SDS011;22029;54.774;9.434;2023-03-14T02:48:48;0.30;;;0.30;;
35943;SDS011;22029;54.774;9.434;2023-03-14T02:51:18;0.30;;;0.30;;
35943;SDS011;22029;54.774;9.434;2023-03-14T02:53:48;0.20;;;0.20;;
35943;SDS011;22029;54.774;9.434;2023-03-14T03:01:35;0.30;;;0.30;;
35943;SDS011;22029;54.774;9.434;2023-03-14T03:04:05;0.20;;;0.20;;
35943;SDS011;22029;54.774;9.434;2023-03-14T03:06:34;0.20;;;0.20;;
35943;SDS011;22029;54.774;9.434;2023-03-14T03:09:04;0.20;;;0.20;;
35943;SDS011;22029;54.774;9.434;2023-03-14T03:11:33;0.20;;;0.20;;
35943;SDS011;22029;54.774;9.434;2023-03-14T03:14:04;0.30;;;0.30;;
35943;SDS011;22029;54.774;9.434;2023-03-14T03:16:35;0.27;;;0.27;;
35943;SDS011;22029;54.774;9.434;2023-03-14T03:19:05;0.20;;;0.20;;
35943;SDS011;22029;54.774;9.434;2023-03-14T03:21:35;0.20;;;0.20;;
35943;SDS011;22029;54.774;9.434;2023-03-14T03:24:04;0.20;;;0.20;;
35943;SDS011;22029;54.774;9.434;2023-03-14T03:26:34;0.20;;;0.20;;
35943;SDS011;22029;54.774;9.434;2023-03-14T03:29:27;0.20;;;0.20;;
35943;SDS011;22029;54.774;9.434;2023-03-14T03:31:58;0.30;;;0.30;;
35943;SDS011;22029;54.774;9.434;2023-03-14T03:34:28;0.20;;;0.20;;
35943;SDS011;22029;54.774;9.434;2023-03-14T03:37:22;0.30;;;0.30;;
35943;SDS011;22029;54.774;9.434;2023-03-14T03:39:52;0.20;;;0.20;;
35943;SDS011;22029;54.774;9.434;2023-03-14T03:42:21;0.20;;;0.20;;
35943;SDS011;22029;54.774;9.434;2023-03-14T03:44:51;0.20;;;0.20;;
35943;SDS011;22029;54.774;9.434;2023-03-14T03:47:24;0.20;;;0.20;;
35943;SDS011;22029;54.774;9.434;2023-03-14T03:49:54;0.20;;;0.20;;
35943;SDS011;22029;54.774;9.434;2023-03-14T03:52:23;0.30;;;0.30;;
35943;SDS011;22029;54.774;9.434;2023-03-14T03:57:28;0.20;;;0.20;;
35943;SDS011;22029;54.774;9.434;2023-03-14T03:59:58;0.20;;;0.20;;
35943;SDS011;22029;54.774;9.434;2023-03-14T04:05:03;0.30;;;0.30;;
35943;SDS011;22029;54.774;9.434;2023-03-14T04:07:33;0.20;;;0.20;;
35943;SDS011;22029;54.774;9.434;2023-03-14T04:10:04;0.20;;;0.20;;
35943;SDS011;22029;54.774;9.434;2023-03-14T04:12:37;0.27;;;0.27;;
35943;SDS011;22029;54.774;9.434;2023-03-14T04:15:11;0.30;;;0.30;;
35943;SDS011;22029;54.774;9.434;2023-03-14T04:17:46;0.30;;;0.30;;
35943;SDS011;22029;54.774;9.434;2023-03-14T04:20:38;0.20;;;0.20;;
35943;SDS011;22029;54.774;9.434;2023-03-14T04:23:08;0.20;;;0.20;;
35943;SDS011;22029;54.774;9.434;2023-03-14T04:25:38;0.20;;;0.20;;
35943;SDS011;22029;54.774;9.434;2023-03-14T04:28:08;0.30;;;0.30;;
35943;SDS011;22029;54.774;9.434;2023-03-14T04:30:37;0.20;;;0.20;;
35943;SDS011;22029;54.774;9.434;2023-03-14T04:33:14;0.30;;;0.30;;
35943;SDS011;22029;54.774;9.434;2023-03-14T04:35:54;0.30;;;0.30;;
35943;SDS011;22029;54.774;9.434;2023-03-14T04:38:24;0.20;;;0.20;;
35943;SDS011;22029;54.774;9.434;2023-03-14T04:40:55;0.30;;;0.30;;
35943;SDS011;22029;54.774;9.434;2023-03-14T04:46:06;0.30;;;0.30;;
35943;SDS011;22029;54.774;9.434;2023-03-14T04:48:36;0.30;;;0.30;;
35943;SDS011;22029;54.774;9.434;2023-03-14T04:51:08;0.30;;;0.30;;
35943;SDS011;22029;54.774;9.434;2023-03-14T04:53:38;0.23;;;0.23;;
35943;SDS011;22029;54.774;9.434;2023-03-14T04:58:45;0.30;;;0.30;;
35943;SDS011;22029;54.774;9.434;2023-03-14T05:01:17;0.30;;;0.30;;
35943;SDS011;22029;54.774;9.434;2023-03-14T05:04:03;0.30;;;0.30;;
35943;SDS011;22029;54.774;9.434;2023-03-14T05:06:49;0.30;;;0.30;;
35943;SDS011;22029;54.774;9.434;2023-03-14T05:09:27;0.30;;;0.30;;
35943;SDS011;22029;54.774;9.434;2023-03-14T05:12:41;0.30;;;0.30;;
35943;SDS011;22029;54.774;9.434;2023-03-14T05:15:29;0.30;;;0.30;;
35943;SDS011;22029;54.774;9.434;2023-03-14T05:18:20;0.30;;;0.30;;
35943;SDS011;22029;54.774;9.434;2023-03-14T05:21:07;0.20;;;0.20;;
35943;SDS011;22029;54.774;9.434;2023-03-14T05:24:04;0.30;;;0.30;;
35943;SDS011;22029;54.774;9.434;2023-03-14T05:26:52;0.30;;;0.30;;
35943;SDS011;22029;54.774;9.434;2023-03-14T05:29:41;0.30;;;0.30;;
35943;SDS011;22029;54.774;9.434;2023-03-14T05:32:38;0.30;;;0.30;;
35943;SDS011;22029;54.774;9.434;2023-03-14T05:35:37;0.30;;;0.30;;
35943;SDS011;22029;54.774;9.434;2023-03-14T05:38:25;0.30;;;0.30;;
35943;SDS011;22029;54.774;9.434;2023-03-14T05:41:35;0.30;;;0.30;;
35943;SDS011;22029;54.774;9.434;2023-03-14T05:44:25;0.30;;;0.30;;
35943;SDS011;22029;54.774;9.434;2023-03-14T05:46:54;0.30;;;0.30;;
35943;SDS011;22029;54.774;9.434;2023-03-14T05:49:51;0.30;;;0.30;;
35943;SDS011;22029;54.774;9.434;2023-03-14T05:52:42;0.30;;;0.30;;
35943;SDS011;22029;54.774;9.434;2023-03-14T05:55:31;0.30;;;0.30;;
35943;SDS011;22029;54.774;9.434;2023-03-14T05:58:14;0.30;;;0.30;;
35943;SDS011;22029;54.774;9.434;2023-03-14T06:01:02;0.30;;;0.30;;
35943;SDS011;22029;54.774;9.434;2023-03-14T06:04:06;0.30;;;0.30;;
35943;SDS011;22029;54.774;9.434;2023-03-14T06:06:35;0.30;;;0.30;;
35943;SDS011;22029;54.774;9.434;2023-03-14T06:09:06;0.30;;;0.30;;
35943;SDS011;22029;54.774;9.434;2023-03-14T06:11:38;0.30;;;0.30;;
35943;SDS011;22029;54.774;9.434;2023-03-14T06:14:09;0.30;;;0.30;;
35943;SDS011;22029;54.774;9.434;2023-03-14T06:16:42;0.30;;;0.30;;
35943;SDS011;22029;54.774;9.434;2023-03-14T06:19:12;0.20;;;0.20;;
35943;SDS011;22029;54.774;9.434;2023-03-14T06:21:42;0.30;;;0.30;;
35943;SDS011;22029;54.774;9.434;2023-03-14T06:24:12;0.30;;;0.30;;
35943;SDS011;22029;54.774;9.434;2023-03-14T06:26:46;0.30;;;0.30;;
35943;SDS011;22029;54.774;9.434;2023-03-14T06:29:17;0.20;;;0.20;;
35943;SDS011;22029;54.774;9.434;2023-03-14T06:32:09;0.30;;;0.30;;
35943;SDS011;22029;54.774;9.434;2023-03-14T06:34:38;0.30;;;0.30;;
35943;SDS011;22029;54.774;9.434;2023-03-14T06:37:08;0.30;;;0.30;;
35943;SDS011;22029;54.774;9.434;2023-03-14T06:39:38;0.20;;;0.20;;
35943;SDS011;22029;54.774;9.434;2023-03-14T06:42:16;0.23;;;0.23;;
35943;SDS011;22029;54.774;9.434;2023-03-14T06:44:47;0.30;;;0.30;;
35943;SDS011;22029;54.774;9.434;2023-03-14T06:47:17;0.30;;;0.30;;
35943;SDS011;22029;54.774;9.434;2023-03-14T06:49:47;0.30;;;0.30;;
35943;SDS011;22029;54.774;9.434;2023-03-14T06:52:18;0.30;;;0.30;;
35943;SDS011;22029;54.774;9.434;2023-03-14T06:54:48;0.30;;;0.30;;
35943;SDS011;22029;54.774;9.434;2023-03-14T06:57:21;0.30;;;0.30;;
35943;SDS011;22029;54.774;9.434;2023-03-14T06:59:52;0.30;;;0.30;;
35943;SDS011;22029;54.774;9.434;2023-03-14T07:02:22;0.30;;;0.30;;
35943;SDS011;22029;54.774;9.434;2023-03-14T07:05:15;0.30;;;0.30;;
35943;SDS011;22029;54.774;9.434;2023-03-14T07:07:56;0.25;;;0.25;;
35943;SDS011;22029;54.774;9.434;2023-03-14T07:10:26;0.30;;;0.30;;
35943;SDS011;22029;54.774;9.434;2023-03-14T07:12:56;0.30;;;0.30;;
35943;SDS011;22029;54.774;9.434;2023-03-14T07:18:05;0.37;;;0.37;;
35943;SDS011;22029;54.774;9.434;2023-03-14T07:20:34;0.30;;;0.30;;
35943;SDS011;22029;54.774;9.434;2023-03-14T07:23:05;0.40;;;0.40;;
35943;SDS011;22029;54.774;9.434;2023-03-14T07:25:43;0.33;;;0.33;;
35943;SDS011;22029;54.774;9.434;2023-03-14T07:28:14;0.40;;;0.40;;
35943;SDS011;22029;54.774;9.434;2023-03-14T07:30:46;0.40;;;0.40;;
35943;SDS011;22029;54.774;9.434;2023-03-14T07:33:23;0.40;;;0.40;;
35943;SDS011;22029;54.774;9.434;2023-03-14T07:35:52;0.30;;;0.30;;
35943;SDS011;22029;54.774;9.434;2023-03-14T07:38:23;0.40;;;0.40;;
35943;SDS011;22029;54.774;9.434;2023-03-14T07:41:16;0.40;;;0.40;;
35943;SDS011;22029;54.774;9.434;2023-03-14T07:44:04;0.40;;;0.40;;
35943;SDS011;22029;54.774;9.434;2023-03-14T07:46:33;0.40;;;0.40;;
35943;SDS011;22029;54.774;9.434;2023-03-14T07:49:05;0.40;;;0.40;;
35943;SDS011;22029;54.774;9.434;2023-03-14T07:51:34;0.40;;;0.40;;
35943;SDS011;22029;54.774;9.434;2023-03-14T07:54:04;0.30;;;0.30;;
35943;SDS011;22029;54.774;9.434;2023-03-14T07:56:33;0.30;;;0.30;;
35943;SDS011;22029;54.774;9.434;2023-03-14T07:59:03;0.30;;;0.30;;
35943;SDS011;22029;54.774;9.434;2023-03-14T08:01:33;0.40;;;0.40;;
35943;SDS011;22029;54.774;9.434;2023-03-14T08:04:04;0.40;;;0.40;;
35943;SDS011;22029;54.774;9.434;2023-03-14T08:06:34;0.40;;;0.40;;
35943;SDS011;22029;54.774;9.434;2023-03-14T08:09:04;0.40;;;0.40;;
35943;SDS011;22029;54.774;9.434;2023-03-14T08:11:34;0.37;;;0.37;;
35943;SDS011;22029;54.774;9.434;2023-03-14T08:14:03;0.40;;;0.40;;
35943;SDS011;22029;54.774;9.434;2023-03-14T08:19:10;0.30;;;0.30;;
35943;SDS011;22029;54.774;9.434;2023-03-14T08:21:57;0.40;;;0.40;;
35943;SDS011;22029;54.774;9.434;2023-03-14T08:24:26;0.30;;;0.30;;
35943;SDS011;22029;54.774;9.434;2023-03-14T08:26:56;0.30;;;0.30;;
35943;SDS011;22029;54.774;9.434;2023-03-14T08:29:26;0.37;;;0.37;;
35943;SDS011;22029;54.774;9.434;2023-03-14T08:31:55;0.40;;;0.40;;
35943;SDS011;22029;54.774;9.434;2023-03-14T08:34:27;0.40;;;0.40;;
35943;SDS011;22029;54.774;9.434;2023-03-14T08:36:56;0.40;;;0.40;;
35943;SDS011;22029;54.774;9.434;2023-03-14T08:39:26;0.40;;;0.40;;
35943;SDS011;22029;54.774;9.434;2023-03-14T08:41:56;0.40;;;0.40;;
35943;SDS011;22029;54.774;9.434;2023-03-14T08:44:25;0.40;;;0.40;;
35943;SDS011;22029;54.774;9.434;2023-03-14T08:46:58;0.40;;;0.40;;
35943;SDS011;22029;54.774;9.434;2023-03-14T08:49:45;0.47;;;0.47;;
35943;SDS011;22029;54.774;9.434;2023-03-14T08:52:15;0.40;;;0.40;;
35943;SDS011;22029;54.774;9.434;2023-03-14T08:54:45;0.40;;;0.40;;
35943;SDS011;22029;54.774;9.434;2023-03-14T08:57:15;0.40;;;0.40;;
35943;SDS011;22029;54.774;9.434;2023-03-14T08:59:44;0.30;;;0.30;;
35943;SDS011;22029;54.774;9.434;2023-03-14T09:02:14;0.40;;;0.40;;
35943;SDS011;22029;54.774;9.434;2023-03-14T09:04:46;0.40;;;0.40;;
35943;SDS011;22029;54.774;9.434;2023-03-14T09:07:15;0.40;;;0.40;;
35943;SDS011;22029;54.774;9.434;2023-03-14T09:09:45;0.40;;;0.40;;
35943;SDS011;22029;54.774;9.434;2023-03-14T09:12:15;0.30;;;0.30;;
35943;SDS011;22029;54.774;9.434;2023-03-14T09:14:45;0.40;;;0.40;;
35943;SDS011;22029;54.774;9.434;2023-03-14T09:17:15;0.40;;;0.40;;
35943;SDS011;22029;54.774;9.434;2023-03-14T09:19:46;0.40;;;0.40;;
35943;SDS011;22029;54.774;9.434;2023-03-14T09:22:15;0.40;;;0.40;;
35943;SDS011;22029;54.774;9.434;2023-03-14T09:24:45;0.40;;;0.40;;
35943;SDS011;22029;54.774;9.434;2023-03-14T09:27:14;0.30;;;0.30;;
35943;SDS011;22029;54.774;9.434;2023-03-14T09:29:44;0.40;;;0.40;;
35943;SDS011;22029;54.774;9.434;2023-03-14T09:32:14;0.30;;;0.30;;
35943;SDS011;22029;54.774;9.434;2023-03-14T09:34:43;0.40;;;0.40;;
35943;SDS011;22029;54.774;9.434;2023-03-14T09:37:14;0.40;;;0.40;;
35943;SDS011;22029;54.774;9.434;2023-03-14T09:39:44;0.40;;;0.40;;
35943;SDS011;22029;54.774;9.434;2023-03-14T09:42:14;0.40;;;0.40;;
35943;SDS011;22029;54.774;9.434;2023-03-14T09:44:47;0.40;;;0.40;;
35943;SDS011;22029;54.774;9.434;2023-03-14T09:47:18;0.40;;;0.40;;
35943;SDS011;22029;54.774;9.434;2023-03-14T09:49:48;0.40;;;0.40;;
35943;SDS011;22029;54.774;9.434;2023-03-14T09:52:19;0.40;;;0.40;;
35943;SDS011;22029;54.774;9.434;2023-03-14T09:54:51;0.40;;;0.40;;
35943;SDS011;22029;54.774;9.434;2023-03-14T09:57:22;0.30;;;0.30;;
35943;SDS011;22029;54.774;9.434;2023-03-14T09:59:54;0.40;;;0.40;;
35943;SDS011;22029;54.774;9.434;2023-03-14T10:02:25;0.30;;;0.30;;
35943;SDS011;22029;54.774;9.434;2023-03-14T10:04:54;0.30;;;0.30;;
35943;SDS011;22029;54.774;9.434;2023-03-14T10:07:27;0.40;;;0.40;;
35943;SDS011;22029;54.774;9.434;2023-03-14T10:09:58;0.40;;;0.40;;
35943;SDS011;22029;54.774;9.434;2023-03-14T10:12:31;0.40;;;0.40;;
35943;SDS011;22029;54.774;9.434;2023-03-14T10:15:02;0.30;;;0.30;;
35943;SDS011;22029;54.774;9.434;2023-03-14T10:17:37;0.40;;;0.40;;
35943;SDS011;22029;54.774;9.434;2023-03-14T10:20:15;0.30;;;0.30;;
35943;SDS011;22029;54.774;9.434;2023-03-14T10:22:56;0.30;;;0.30;;
35943;SDS011;22029;54.774;9.434;2023-03-14T10:25:27;0.30;;;0.30;;
35943;SDS011;22029;54.774;9.434;2023-03-14T10:27:57;0.30;;;0.30;;
35943;SDS011;22029;54.774;9.434;2023-03-14T10:30:28;0.30;;;0.30;;
35943;SDS011;22029;54.774;9.434;2023-03-14T10:33:03;0.30;;;0.30;;
35943;SDS011;22029;54.774;9.434;2023-03-14T10:35:36;0.40;;;0.40;;
35943;SDS011;22029;54.774;9.434;2023-03-14T10:38:11;0.30;;;0.30;;
35943;SDS011;22029;54.774;9.434;2023-03-14T10:40:45;0.30;;;0.30;;
35943;SDS011;22029;54.774;9.434;2023-03-14T10:43:17;0.30;;;0.30;;
35943;SDS011;22029;54.774;9.434;2023-03-14T10:45:51;0.40;;;0.40;;
35943;SDS011;22029;54.774;9.434;2023-03-14T10:51:04;0.40;;;0.40;;
35943;SDS011;22029;54.774;9.434;2023-03-14T10:53:39;0.30;;;0.30;;
35943;SDS011;22029;54.774;9.434;2023-03-14T10:56:11;0.40;;;0.40;;
35943;SDS011;22029;54.774;9.434;2023-03-14T10:58:42;0.30;;;0.30;;
35943;SDS011;22029;54.774;9.434;2023-03-14T11:01:15;0.30;;;0.30;;
35943;SDS011;22029;54.774;9.434;2023-03-14T11:03:48;0.30;;;0.30;;
35943;SDS011;22029;54.774;9.434;2023-03-14T11:06:20;0.30;;;0.30;;
35943;SDS011;22029;54.774;9.434;2023-03-14T11:08:55;0.30;;;0.30;;
35943;SDS011;22029;54.774;9.434;2023-03-14T11:11:26;0.40;;;0.40;;
35943;SDS011;22029;54.774;9.434;2023-03-14T11:14:01;0.40;;;0.40;;
35943;SDS011;22029;54.774;9.434;2023-03-14T11:16:34;0.30;;;0.30;;
35943;SDS011;22029;54.774;9.434;2023-03-14T11:19:14;0.30;;;0.30;;
35943;SDS011;22029;54.774;9.434;2023-03-14T11:21:49;0.30;;;0.30;;
35943;SDS011;22029;54.774;9.434;2023-03-14T11:24:25;0.30;;;0.30;;
35943;SDS011;22029;54.774;9.434;2023-03-14T11:26:58;0.30;;;0.30;;
35943;SDS011;22029;54.774;9.434;2023-03-14T11:29:33;0.30;;;0.30;;
35943;SDS011;22029;54.774;9.434;2023-03-14T11:32:09;0.30;;;0.30;;
35943;SDS011;22029;54.774;9.434;2023-03-14T11:34:42;0.30;;;0.30;;
35943;SDS011;22029;54.774;9.434;2023-03-14T11:37:14;0.30;;;0.30;;
35943;SDS011;22029;54.774;9.434;2023-03-14T11:39:50;0.40;;;0.40;;
35943;SDS011;22029;54.774;9.434;2023-03-14T11:42:22;0.30;;;0.30;;
35943;SDS011;22029;54.774;9.434;2023-03-14T11:44:53;0.30;;;0.30;;
35943;SDS011;22029;54.774;9.434;2023-03-14T11:47:25;0.30;;;0.30;;
35943;SDS011;22029;54.774;9.434;2023-03-14T11:49:57;0.40;;;0.40;;
35943;SDS011;22029;54.774;9.434;2023-03-14T11:52:28;0.30;;;0.30;;
35943;SDS011;22029;54.774;9.434;2023-03-14T11:55:02;0.30;;;0.30;;
35943;SDS011;22029;54.774;9.434;2023-03-14T11:57:34;0.30;;;0.30;;
35943;SDS011;22029;54.774;9.434;2023-03-14T12:00:04;0.30;;;0.30;;
35943;SDS011;22029;54.774;9.434;2023-03-14T12:02:41;0.30;;;0.30;;
35943;SDS011;22029;54.774;9.434;2023-03-14T12:05:25;0.30;;;0.30;;
35943;SDS011;22029;54.774;9.434;2023-03-14T12:08:03;0.30;;;0.30;;
35943;SDS011;22029;54.774;9.434;2023-03-14T12:10:44;0.30;;;0.30;;
35943;SDS011;22029;54.774;9.434;2023-03-14T12:15:53;0.30;;;0.30;;
35943;SDS011;22029;54.774;9.434;2023-03-14T12:20:53;0.20;;;0.20;;
35943;SDS011;22029;54.774;9.434;2023-03-14T12:23:23;0.30;;;0.30;;
35943;SDS011;22029;54.774;9.434;2023-03-14T12:26:15;0.30;;;0.30;;
35943;SDS011;22029;54.774;9.434;2023-03-14T12:28:49;0.40;;;0.40;;
35943;SDS011;22029;54.774;9.434;2023-03-14T12:31:37;0.30;;;0.30;;
35943;SDS011;22029;54.774;9.434;2023-03-14T12:36:54;0.30;;;0.30;;
35943;SDS011;22029;54.774;9.434;2023-03-14T12:39:27;0.20;;;0.20;;
35943;SDS011;22029;54.774;9.434;2023-03-14T12:42:05;0.20;;;0.20;;
35943;SDS011;22029;54.774;9.434;2023-03-14T12:44:44;0.20;;;0.20;;
35943;SDS011;22029;54.774;9.434;2023-03-14T12:50:15;0.30;;;0.30;;
35943;SDS011;22029;54.774;9.434;2023-03-14T12:53:01;0.20;;;0.20;;
35943;SDS011;22029;54.774;9.434;2023-03-14T12:55:33;0.20;;;0.20;;
35943;SDS011;22029;54.774;9.434;2023-03-14T12:58:07;0.20;;;0.20;;
35943;SDS011;22029;54.774;9.434;2023-03-14T13:00:41;0.20;;;0.20;;
35943;SDS011;22029;54.774;9.434;2023-03-14T13:03:17;0.20;;;0.20;;
35943;SDS011;22029;54.774;9.434;2023-03-14T13:05:53;0.20;;;0.20;;
35943;SDS011;22029;54.774;9.434;2023-03-14T13:08:33;0.30;;;0.30;;
35943;SDS011;22029;54.774;9.434;2023-03-14T13:11:06;0.30;;;0.30;;
35943;SDS011;22029;54.774;9.434;2023-03-14T13:13:41;0.30;;;0.30;;
35943;SDS011;22029;54.774;9.434;2023-03-14T13:16:14;0.30;;;0.30;;
35943;SDS011;22029;54.774;9.434;2023-03-14T13:18:45;0.30;;;0.30;;
35943;SDS011;22029;54.774;9.434;2023-03-14T13:21:15;0.30;;;0.30;;
35943;SDS011;22029;54.774;9.434;2023-03-14T13:23:54;0.30;;;0.30;;
35943;SDS011;22029;54.774;9.434;2023-03-14T13:26:24;0.23;;;0.23;;
35943;SDS011;22029;54.774;9.434;2023-03-14T13:28:56;0.30;;;0.30;;
35943;SDS011;22029;54.774;9.434;2023-03-14T13:31:25;0.30;;;0.30;;
35943;SDS011;22029;54.774;9.434;2023-03-14T13:33:58;0.30;;;0.30;;
35943;SDS011;22029;54.774;9.434;2023-03-14T13:36:27;0.40;;;0.40;;
35943;SDS011;22029;54.774;9.434;2023-03-14T13:38:57;0.40;;;0.40;;
35943;SDS011;22029;54.774;9.434;2023-03-14T13:41:48;0.40;;;0.40;;
35943;SDS011;22029;54.774;9.434;2023-03-14T13:44:29;0.40;;;0.40;;
35943;SDS011;22029;54.774;9.434;2023-03-14T13:47:00;0.40;;;0.40;;
35943;SDS011;22029;54.774;9.434;2023-03-14T13:49:30;0.30;;;0.30;;
35943;SDS011;22029;54.774;9.434;2023-03-14T13:52:03;0.30;;;0.30;;
35943;SDS011;22029;54.774;9.434;2023-03-14T13:54:33;0.30;;;0.30;;
35943;SDS011;22029;54.774;9.434;2023-03-14T13:57:03;0.30;;;0.30;;
35943;SDS011;22029;54.774;9.434;2023-03-14T13:59:34;0.30;;;0.30;;
35943;SDS011;22029;54.774;9.434;2023-03-14T14:02:04;0.40;;;0.40;;
35943;SDS011;22029;54.774;9.434;2023-03-14T14:04:38;0.30;;;0.30;;
35943;SDS011;22029;54.774;9.434;2023-03-14T14:07:09;0.40;;;0.40;;
35943;SDS011;22029;54.774;9.434;2023-03-14T14:09:51;0.30;;;0.30;;
35943;SDS011;22029;54.774;9.434;2023-03-14T14:12:22;0.30;;;0.30;;
35943;SDS011;22029;54.774;9.434;2023-03-14T14:17:27;0.30;;;0.30;;
35943;SDS011;22029;54.774;9.434;2023-03-14T14:22:28;0.30;;;0.30;;
35943;SDS011;22029;54.774;9.434;2023-03-14T14:24:57;0.30;;;0.30;;
35943;SDS011;22029;54.774;9.434;2023-03-14T14:30:03;0.30;;;0.30;;
35943;SDS011;22029;54.774;9.434;2023-03-14T14:32:38;0.40;;;0.40;;
35943;SDS011;22029;54.774;9.434;2023-03-14T14:35:09;0.30;;;0.30;;
35943;SDS011;22029;54.774;9.434;2023-03-14T14:37:55;0.30;;;0.30;;
35943;SDS011;22029;54.774;9.434;2023-03-14T14:40:35;0.30;;;0.30;;
35943;SDS011;22029;54.774;9.434;2023-03-14T14:43:14;0.40;;;0.40;;
35943;SDS011;22029;54.774;9.434;2023-03-14T14:45:46;0.30;;;0.30;;
35943;SDS011;22029;54.774;9.434;2023-03-14T14:48:29;0.30;;;0.30;;
35943;SDS011;22029;54.774;9.434;2023-03-14T14:51:10;0.30;;;0.30;;
35943;SDS011;22029;54.774;9.434;2023-03-14T14:53:41;0.30;;;0.30;;
35943;SDS011;22029;54.774;9.434;2023-03-14T14:56:16;0.30;;;0.30;;
35943;SDS011;22029;54.774;9.434;2023-03-14T14:59:18;0.30;;;0.30;;
35943;SDS011;22029;54.774;9.434;2023-03-14T15:01:49;0.37;;;0.37;;
35943;SDS011;22029;54.774;9.434;2023-03-14T15:04:21;0.40;;;0.40;;
35943;SDS011;22029;54.774;9.434;2023-03-14T15:06:50;0.40;;;0.40;;
35943;SDS011;22029;54.774;9.434;2023-03-14T15:11:50;0.30;;;0.30;;
35943;SDS011;22029;54.774;9.434;2023-03-14T15:14:20;0.30;;;0.30;;
35943;SDS011;22029;54.774;9.434;2023-03-14T15:16:49;0.40;;;0.40;;
35943;SDS011;22029;54.774;9.434;2023-03-14T15:19:21;0.40;;;0.40;;
35943;SDS011;22029;54.774;9.434;2023-03-14T15:21:52;0.30;;;0.30;;
35943;SDS011;22029;54.774;9.434;2023-03-14T15:24:22;0.30;;;0.30;;
35943;SDS011;22029;54.774;9.434;2023-03-14T15:26:51;0.40;;;0.40;;
35943;SDS011;22029;54.774;9.434;2023-03-14T15:29:21;0.40;;;0.40;;
35943;SDS011;22029;54.774;9.434;2023-03-14T15:32:01;0.40;;;0.40;;
35943;SDS011;22029;54.774;9.434;2023-03-14T15:34:32;0.40;;;0.40;;
35943;SDS011;22029;54.774;9.434;2023-03-14T15:37:25;0.40;;;0.40;;
35943;SDS011;22029;54.774;9.434;2023-03-14T15:39:54;0.40;;;0.40;;
35943;SDS011;22029;54.774;9.434;2023-03-14T15:42:25;0.40;;;0.40;;
35943;SDS011;22029;54.774;9.434;2023-03-14T15:44:54;0.40;;;0.40;;
35943;SDS011;22029;54.774;9.434;2023-03-14T15:50:00;0.37;;;0.37;;
35943;SDS011;22029;54.774;9.434;2023-03-14T15:55:20;0.40;;;0.40;;
35943;SDS011;22029;54.774;9.434;2023-03-14T15:57:49;0.40;;;0.40;;
35943;SDS011;22029;54.774;9.434;2023-03-14T16:00:20;0.40;;;0.40;;
35943;SDS011;22029;54.774;9.434;2023-03-14T16:02:51;0.40;;;0.40;;
35943;SDS011;22029;54.774;9.434;2023-03-14T16:05:22;0.40;;;0.40;;
35943;SDS011;22029;54.774;9.434;2023-03-14T16:07:52;0.40;;;0.40;;
35943;SDS011;22029;54.774;9.434;2023-03-14T16:10:21;0.40;;;0.40;;
35943;SDS011;22029;54.774;9.434;2023-03-14T16:13:12;0.40;;;0.40;;
35943;SDS011;22029;54.774;9.434;2023-03-14T16:18:20;0.32;;;0.32;;
35943;SDS011;22029;54.774;9.434;2023-03-14T16:20:54;0.40;;;0.40;;